createdAt,value
2023-05-21T00:06:22.755Z,84.90
2023-05-21T00:16:22.096Z,84.90
2023-05-21T00:26:21.755Z,85.50
2023-05-21T00:36:22.632Z,85.60
2023-05-21T00:46:21.904Z,85.80
2023-05-21T00:56:21.511Z,85.70
2023-05-21T01:06:20.799Z,85.50
2023-05-21T01:16:19.765Z,85.80
2023-05-21T01:26:18.758Z,86.20
2023-05-21T01:36:17.768Z,86.00
2023-05-21T01:46:16.820Z,86.10
2023-05-21T01:56:15.930Z,86.20
2023-05-21T02:06:14.776Z,86.50
2023-05-21T02:16:15.541Z,86.70
2023-05-21T02:26:14.766Z,87.00
2023-05-21T02:36:15.021Z,86.80
2023-05-21T02:46:13.944Z,86.80
2023-05-21T02:56:13.115Z,87.00
2023-05-21T03:06:11.786Z,87.60
2023-05-21T03:16:11.057Z,88.10
2023-05-21T03:26:10.114Z,88.30
2023-05-21T03:36:10.738Z,88.40
2023-05-21T03:46:14.737Z,88.40
2023-05-21T03:56:14.834Z,88.80
2023-05-21T04:06:14.202Z,89.20
2023-05-21T04:16:14.923Z,89.50
2023-05-21T04:26:16.087Z,89.80
2023-05-21T04:36:17.437Z,89.80
2023-05-21T04:46:16.322Z,89.70
2023-05-21T04:56:15.208Z,89.80
2023-05-21T05:06:14.100Z,89.90
2023-05-21T05:16:15.231Z,90.00
2023-05-21T05:26:14.186Z,90.00
2023-05-21T05:36:13.129Z,90.00
2023-05-21T05:46:12.021Z,89.70
2023-05-21T05:56:11.101Z,89.30
2023-05-21T06:06:10.120Z,89.00
2023-05-21T06:16:09.740Z,88.30
2023-05-21T06:26:09.134Z,87.80
2023-05-21T06:36:08.040Z,87.40
2023-05-21T06:46:11.854Z,87.50
2023-05-21T06:56:16.146Z,86.90
2023-05-21T07:06:15.123Z,86.20
2023-05-21T07:16:14.623Z,86.30
2023-05-21T07:26:14.257Z,85.20
2023-05-21T07:36:13.868Z,84.70
2023-05-21T07:46:13.988Z,84.30
2023-05-21T07:56:13.181Z,82.70
2023-05-21T08:06:12.235Z,82.30
2023-05-21T08:16:11.428Z,80.30
2023-05-21T08:26:10.801Z,79.30
2023-05-21T08:36:14.883Z,78.10
2023-05-21T08:46:14.518Z,77.80
2023-05-21T08:56:16.943Z,77.40
2023-05-21T09:06:16.991Z,77.20
2023-05-21T09:16:16.866Z,76.20
2023-05-21T09:26:16.238Z,74.90
2023-05-21T09:36:16.378Z,74.20
2023-05-21T09:46:15.193Z,74.00
2023-05-21T09:56:14.227Z,75.20
2023-05-21T10:06:13.063Z,73.60
2023-05-21T10:16:12.324Z,73.30
2023-05-21T10:26:11.056Z,71.60
2023-05-21T10:36:10.143Z,69.80
2023-05-21T10:46:09.150Z,69.50
2023-05-21T10:56:08.108Z,68.80
2023-05-21T11:06:08.130Z,70.30
2023-05-21T11:16:07.588Z,70.50
2023-05-21T11:26:06.140Z,70.70
2023-05-21T11:36:05.173Z,69.30
2023-05-21T11:46:04.195Z,67.90
2023-05-21T11:56:03.250Z,66.50
2023-05-21T12:06:03.535Z,67.00
2023-05-21T12:16:02.984Z,67.20
2023-05-21T12:26:03.359Z,67.90
2023-05-21T12:36:03.557Z,68.70
2023-05-21T12:46:02.198Z,67.90
2023-05-21T12:56:01.211Z,68.50
2023-05-21T13:06:00.628Z,66.20
2023-05-21T13:16:00.555Z,66.50
2023-05-21T13:25:59.225Z,66.80
2023-05-21T13:35:58.289Z,68.60
2023-05-21T13:45:57.226Z,68.30
2023-05-21T13:55:56.255Z,67.90
2023-05-21T14:05:55.450Z,67.90
2023-05-21T14:15:54.241Z,67.00
2023-05-21T14:25:53.268Z,67.20
2023-05-21T14:35:52.280Z,67.40
2023-05-21T14:45:51.312Z,66.70
2023-05-21T14:55:50.243Z,65.70
2023-05-21T15:05:49.275Z,65.90
2023-05-21T15:15:48.334Z,65.40
2023-05-21T15:25:47.303Z,66.10
2023-05-21T15:35:46.448Z,65.00
2023-05-21T15:45:45.342Z,65.60
2023-05-21T15:55:44.990Z,65.70
2023-05-21T16:05:44.351Z,63.30
2023-05-21T16:15:43.483Z,55.60
2023-05-21T16:25:42.431Z,50.70
2023-05-21T16:35:41.374Z,46.60
2023-05-21T16:45:40.869Z,46.60
2023-05-21T16:55:40.102Z,47.30
2023-05-21T17:05:39.502Z,51.20
2023-05-21T17:15:38.804Z,55.10
2023-05-21T17:25:37.557Z,57.60
2023-05-21T17:35:36.636Z,61.10
2023-05-21T17:45:35.722Z,63.60
2023-05-21T17:55:34.571Z,64.40
2023-05-21T18:05:33.449Z,66.70
2023-05-21T18:15:33.059Z,68.00
2023-05-21T18:25:31.442Z,72.30
2023-05-21T18:35:30.750Z,74.80
2023-05-21T18:45:29.449Z,76.40
2023-05-21T18:55:28.472Z,78.60
2023-05-21T19:05:27.891Z,79.90
2023-05-21T19:15:26.474Z,81.40
2023-05-21T19:25:25.783Z,84.60
2023-05-21T19:35:24.495Z,87.10
2023-05-21T19:45:24.930Z,90.30
2023-05-21T19:55:24.220Z,90.60
2023-05-21T20:05:23.530Z,91.50
2023-05-21T20:15:22.529Z,91.90
2023-05-21T20:25:21.532Z,91.80
2023-05-21T20:35:20.544Z,91.70
2023-05-21T20:45:20.466Z,91.80
2023-05-21T20:55:20.528Z,91.80
2023-05-21T21:05:19.816Z,91.90
2023-05-21T21:15:18.550Z,92.30
2023-05-21T21:25:17.880Z,92.20
2023-05-21T21:35:16.632Z,92.00
2023-05-21T21:45:15.630Z,92.00
2023-05-21T21:55:14.679Z,92.10
2023-05-21T22:05:14.447Z,92.00
2023-05-21T22:15:13.628Z,92.30
2023-05-21T22:25:12.582Z,92.50
2023-05-21T22:35:12.608Z,92.90
2023-05-21T22:45:11.733Z,94.00
2023-05-21T22:55:11.240Z,94.10
2023-05-21T23:05:10.678Z,94.40
2023-05-21T23:15:10.475Z,94.10
2023-05-21T23:25:09.632Z,93.80
2023-05-21T23:35:08.967Z,93.50
2023-05-21T23:45:07.657Z,93.50
2023-05-21T23:55:06.671Z,93.50
